createdAt,value
2019-05-01T00:01:40.624Z,75.46
2019-05-01T00:06:42.632Z,75.50
2019-05-01T00:11:36.894Z,75.27
2019-05-01T00:16:31.105Z,75.95
2019-05-01T00:21:25.269Z,77.17
2019-05-01T00:26:19.237Z,77.12
2019-05-01T00:31:13.817Z,76.95
2019-05-01T00:36:07.893Z,77.35
2019-05-01T00:41:02.498Z,77.12
2019-05-01T00:45:56.470Z,77.47
2019-05-01T00:50:50.549Z,77.28
2019-05-01T00:55:46.630Z,77.05
2019-05-01T01:00:43.457Z,77.07
2019-05-01T01:05:37.802Z,77.48
2019-05-01T01:10:31.975Z,78.41
2019-05-01T01:15:26.081Z,79.06
2019-05-01T01:20:20.053Z,79.05
2019-05-01T01:25:14.114Z,79.05
2019-05-01T01:30:10.445Z,79.05
2019-05-01T01:35:05.403Z,78.85
2019-05-01T01:39:59.479Z,79.11
2019-05-01T01:44:58.197Z,78.60
2019-05-01T01:49:53.555Z,79.91
2019-05-01T01:54:47.925Z,79.89
2019-05-01T01:59:42.194Z,80.10
2019-05-01T02:04:54.798Z,79.73
2019-05-01T02:09:48.861Z,78.89
2019-05-01T02:14:42.830Z,79.01
2019-05-01T02:19:36.781Z,78.79
2019-05-01T02:24:32.083Z,79.03
2019-05-01T02:29:34.164Z,78.84
2019-05-01T02:34:28.289Z,78.56
2019-05-01T02:39:23.165Z,79.02
2019-05-01T02:44:21.043Z,79.08
2019-05-01T02:49:40.094Z,79.72
2019-05-01T02:54:35.667Z,79.33
2019-05-01T02:59:30.119Z,78.49
2019-05-01T03:04:24.293Z,79.74
2019-05-01T03:09:19.260Z,79.28
2019-05-01T03:14:16.821Z,78.96
2019-05-01T03:19:19.178Z,79.15
2019-05-01T03:24:18.372Z,79.75
2019-05-01T03:29:12.530Z,80.21
2019-05-01T03:34:06.522Z,79.73
2019-05-01T03:39:00.577Z,79.14
2019-05-01T03:43:55.219Z,79.38
2019-05-01T03:48:49.704Z,79.19
2019-05-01T03:53:44.155Z,79.29
2019-05-01T03:58:38.547Z,79.47
2019-05-01T04:03:34.520Z,79.66
2019-05-01T04:08:28.482Z,79.86
2019-05-01T04:13:22.761Z,80.12
2019-05-01T04:18:17.202Z,79.92
2019-05-01T04:23:11.408Z,80.03
2019-05-01T04:28:24.324Z,79.09
2019-05-01T04:33:20.371Z,78.94
2019-05-01T04:38:14.359Z,78.95
2019-05-01T04:43:08.628Z,78.99
2019-05-01T04:48:02.815Z,78.59
2019-05-01T04:52:57.569Z,79.03
2019-05-01T04:57:51.756Z,78.67
2019-05-01T05:03:04.428Z,78.37
2019-05-01T05:07:53.240Z,77.67
2019-05-01T05:12:49.202Z,78.07
2019-05-01T05:17:43.252Z,78.76
2019-05-01T05:22:37.517Z,78.76
2019-05-01T05:27:32.075Z,79.29
2019-05-01T05:32:27.140Z,80.19
2019-05-01T05:37:29.224Z,79.39
2019-05-01T05:42:23.487Z,80.22
2019-05-01T05:47:17.849Z,80.09
2019-05-01T05:52:14.325Z,79.34
2019-05-01T05:57:11.954Z,79.44
2019-05-01T06:02:24.958Z,79.74
2019-05-01T06:07:24.597Z,79.21
2019-05-01T06:12:23.988Z,79.13
2019-05-01T06:17:29.863Z,78.12
2019-05-01T06:22:40.755Z,78.92
2019-05-01T06:27:35.189Z,78.02
2019-05-01T06:32:33.618Z,78.34
2019-05-01T06:37:56.050Z,78.37
2019-05-01T06:42:52.814Z,78.61
2019-05-01T06:47:48.676Z,77.88
2019-05-01T06:52:42.836Z,75.88
2019-05-01T06:57:38.421Z,74.40
2019-05-01T07:02:35.229Z,74.96
2019-05-01T07:07:30.639Z,75.25
2019-05-01T07:12:28.344Z,76.48
2019-05-01T07:17:21.607Z,76.83
2019-05-01T07:22:15.790Z,77.51
2019-05-01T07:27:09.956Z,77.96
2019-05-01T07:32:06.326Z,78.16
2019-05-01T07:37:00.619Z,77.92
2019-05-01T07:41:56.708Z,77.04
2019-05-01T07:46:54.375Z,78.09
2019-05-01T07:51:50.196Z,78.11
2019-05-01T07:56:45.017Z,78.46
2019-05-01T08:01:40.899Z,76.84
2019-05-01T08:06:35.092Z,76.62
2019-05-01T08:11:29.079Z,76.43
2019-05-01T08:16:23.266Z,76.39
2019-05-01T08:21:26.220Z,75.95
2019-05-01T08:26:17.904Z,74.58
2019-05-01T08:31:13.983Z,73.90
2019-05-01T08:36:11.715Z,73.52
2019-05-01T08:41:05.567Z,72.24
2019-05-01T08:46:01.467Z,72.57
2019-05-01T08:50:59.090Z,72.86
2019-05-01T08:55:51.719Z,72.90
2019-05-01T09:00:45.915Z,73.28
2019-05-01T09:05:40.019Z,73.15
2019-05-01T09:10:34.107Z,71.42
2019-05-01T09:15:28.115Z,71.11
2019-05-01T09:20:22.328Z,70.69
2019-05-01T09:25:18.227Z,70.94
2019-05-01T09:30:26.747Z,69.44
2019-05-01T09:35:19.814Z,68.73
2019-05-01T09:40:14.465Z,68.81
2019-05-01T09:45:08.575Z,68.42
2019-05-01T09:50:05.028Z,69.09
2019-05-01T09:55:13.383Z,69.63
2019-05-01T10:00:09.723Z,69.97
2019-05-01T10:05:06.726Z,70.27
2019-05-01T10:10:01.514Z,70.68
2019-05-01T10:14:55.613Z,68.60
2019-05-01T10:19:50.222Z,68.89
2019-05-01T10:24:44.314Z,68.07
2019-05-01T10:29:40.297Z,67.33
2019-05-01T10:34:38.747Z,67.46
2019-05-01T10:39:32.092Z,66.42
2019-05-01T10:44:26.149Z,66.28
2019-05-01T10:49:20.605Z,65.91
2019-05-01T10:54:14.693Z,64.97
2019-05-01T10:59:08.642Z,64.53
2019-05-01T11:04:03.216Z,63.05
2019-05-01T11:08:57.242Z,61.97
2019-05-01T11:13:51.456Z,61.24
2019-05-01T11:18:45.581Z,60.76
2019-05-01T11:23:39.772Z,61.49
2019-05-01T11:28:33.925Z,59.79
2019-05-01T11:33:49.046Z,59.36
2019-05-01T11:38:47.875Z,58.93
2019-05-01T11:43:41.985Z,56.64
2019-05-01T11:48:36.021Z,54.94
2019-05-01T11:53:29.981Z,56.87
2019-05-01T11:58:24.184Z,58.79
2019-05-01T12:03:18.170Z,56.79
2019-05-01T12:08:12.193Z,54.84
2019-05-01T12:13:06.404Z,54.67
2019-05-01T12:18:00.432Z,55.13
2019-05-01T12:22:54.432Z,53.78
2019-05-01T12:27:48.659Z,54.81
2019-05-01T12:32:42.762Z,54.81
2019-05-01T12:37:38.677Z,54.05
2019-05-01T12:42:33.977Z,52.72
2019-05-01T12:47:32.876Z,51.60
2019-05-01T12:52:34.740Z,52.61
2019-05-01T12:57:28.800Z,52.27
2019-05-01T13:02:23.655Z,52.11
2019-05-01T13:07:18.211Z,50.54
2019-05-01T13:12:12.271Z,51.24
2019-05-01T13:17:06.313Z,49.19
2019-05-01T13:22:00.518Z,46.15
2019-05-01T13:26:56.476Z,45.92
2019-05-01T13:31:52.375Z,44.33
2019-05-01T13:36:46.472Z,40.37
2019-05-01T13:41:40.660Z,38.58
2019-05-01T13:46:34.705Z,34.75
2019-05-01T13:51:28.826Z,32.40
2019-05-01T13:56:22.845Z,31.64
2019-05-01T14:01:17.648Z,31.80
2019-05-01T14:06:11.708Z,32.10
2019-05-01T14:11:05.714Z,28.80
2019-05-01T14:15:59.771Z,29.07
2019-05-01T14:21:12.498Z,28.16
2019-05-01T14:26:07.475Z,28.16
2019-05-01T14:31:01.952Z,28.98
2019-05-01T14:35:56.034Z,25.71
2019-05-01T14:40:50.446Z,24.26
2019-05-01T14:45:44.558Z,23.65
2019-05-01T14:50:38.569Z,23.40
2019-05-01T14:55:32.809Z,22.12
2019-05-01T15:00:26.961Z,22.17
2019-05-01T15:05:22.853Z,22.38
2019-05-01T15:10:17.061Z,21.17
2019-05-01T15:15:30.088Z,20.74
2019-05-01T15:20:24.264Z,19.77
2019-05-01T15:25:18.406Z,19.60
2019-05-01T15:30:16.193Z,19.60
2019-05-01T15:35:10.389Z,19.09
2019-05-01T15:40:07.302Z,18.96
2019-05-01T15:45:01.887Z,19.53
2019-05-01T15:49:56.140Z,19.42
2019-05-01T15:54:50.237Z,20.18
2019-05-01T15:59:44.261Z,19.31
2019-05-01T16:04:38.334Z,19.39
2019-05-01T16:09:32.542Z,19.98
2019-05-01T16:14:26.556Z,19.71
2019-05-01T16:19:20.567Z,20.33
2019-05-01T16:24:14.643Z,19.99
2019-05-01T16:29:08.639Z,21.33
2019-05-01T16:34:03.153Z,22.69
2019-05-01T16:39:14.417Z,22.38
2019-05-01T16:44:08.648Z,26.76
2019-05-01T16:49:03.206Z,33.48
2019-05-01T16:53:57.307Z,37.45
2019-05-01T16:58:51.321Z,40.08
2019-05-01T17:04:03.728Z,41.53
2019-05-01T17:09:08.657Z,42.57
2019-05-01T17:14:03.242Z,43.97
2019-05-01T17:18:57.263Z,44.88
2019-05-01T17:23:51.264Z,45.22
2019-05-01T17:28:45.367Z,45.90
2019-05-01T17:33:39.487Z,45.82
2019-05-01T17:38:33.451Z,46.73
2019-05-01T17:43:27.449Z,48.56
2019-05-01T17:48:21.547Z,50.25
2019-05-01T17:53:15.758Z,51.58
2019-05-01T17:58:09.914Z,52.69
2019-05-01T18:03:21.408Z,54.48
2019-05-01T18:08:15.517Z,55.56
2019-05-01T18:13:09.757Z,57.07
2019-05-01T18:18:04.138Z,58.36
2019-05-01T18:23:12.527Z,59.25
2019-05-01T18:28:19.122Z,60.35
2019-05-01T18:33:13.285Z,61.08
2019-05-01T18:38:15.519Z,62.54
2019-05-01T18:43:10.892Z,63.29
2019-05-01T18:48:05.069Z,64.37
2019-05-01T18:52:59.181Z,65.10
2019-05-01T18:57:53.298Z,65.53
2019-05-01T19:02:47.532Z,65.69
2019-05-01T19:07:41.659Z,66.19
2019-05-01T19:12:35.911Z,67.97
2019-05-01T19:17:29.942Z,68.71
2019-05-01T19:22:24.045Z,69.47
2019-05-01T19:27:18.905Z,70.22
2019-05-01T19:32:15.378Z,70.71
2019-05-01T19:37:09.533Z,71.28
2019-05-01T19:42:03.865Z,71.84
2019-05-01T19:46:57.976Z,72.80
2019-05-01T19:51:55.602Z,73.33
2019-05-01T19:56:49.829Z,73.20
2019-05-01T20:01:49.102Z,73.79
2019-05-01T20:06:40.586Z,74.42
2019-05-01T20:11:34.957Z,74.43
2019-05-01T20:16:28.961Z,74.81
2019-05-01T20:21:25.102Z,75.67
2019-05-01T20:26:19.170Z,75.90
2019-05-01T20:31:13.167Z,76.11
2019-05-01T20:36:07.184Z,76.17
2019-05-01T20:41:01.524Z,76.43
2019-05-01T20:45:55.660Z,76.40
2019-05-01T20:50:49.613Z,77.23
2019-05-01T20:55:45.625Z,77.30
2019-05-01T21:00:40.331Z,77.70
2019-05-01T21:05:38.263Z,77.70
2019-05-01T21:10:51.096Z,77.36
2019-05-01T21:15:47.283Z,77.89
2019-05-01T21:20:43.869Z,78.79
2019-05-01T21:25:37.727Z,78.87
2019-05-01T21:30:33.913Z,78.97
2019-05-01T21:35:28.212Z,78.81
2019-05-01T21:40:23.025Z,78.42
2019-05-01T21:45:17.164Z,78.28
2019-05-01T21:50:13.177Z,78.66
2019-05-01T21:55:07.279Z,78.99
2019-05-01T22:00:01.415Z,79.47
2019-05-01T22:04:55.485Z,79.94
2019-05-01T22:09:50.562Z,79.37
2019-05-01T22:14:47.306Z,78.83
2019-05-01T22:19:41.732Z,79.98
2019-05-01T22:24:43.354Z,80.01
2019-05-01T22:29:42.314Z,79.78
2019-05-01T22:34:38.307Z,79.66
2019-05-01T22:39:33.960Z,80.01
2019-05-01T22:44:27.946Z,79.95
2019-05-01T22:49:22.032Z,80.51
2019-05-01T22:54:19.526Z,80.19
2019-05-01T22:59:13.601Z,80.32
2019-05-01T23:04:12.015Z,80.60
2019-05-01T23:09:05.488Z,80.32
2019-05-01T23:13:59.564Z,80.42
2019-05-01T23:18:53.794Z,80.97
2019-05-01T23:23:47.938Z,81.28
2019-05-01T23:28:42.029Z,81.42
2019-05-01T23:33:36.000Z,81.01
2019-05-01T23:38:30.261Z,80.72
2019-05-01T23:43:27.910Z,80.72
2019-05-01T23:48:20.267Z,80.87
2019-05-01T23:53:15.187Z,81.47
2019-05-01T23:58:11.090Z,81.85
